الصفحة الرئيسية
METAR-TAF:

METAR-TAF

مطار :

Port Macquarie, أستراليا

دائرة عرض: 31-26-09S, خط طول: 152-51-48E, ارتفاع: 5 متر

مراقبة الطقس الحالي

تاريخ ووقت الإصدار 4ساعات و 37 دقيقة قبل الساعة 03:56UTC
ريح 7 عقدة من الجنوب الغربي
درجة الحرارة 15°درجة مئوية
الرطوبة 100%
ضغط 1020 hPa
الرؤية: 7000 متر
غيوم متفرقة على ارتفاع 6400 قدم
ملبد بالغيوم على ارتفاع 7600 قدم
ملبد بالغيوم على ارتفاع 8700 قدم

METAR: YPMQ 170356Z AUTO 22007KT 7000 // SCT064 OVC076 OVC087 15/15 Q1020

زمن: 18:33 (08:33 UTC)


TAF: مفقودة

أرصاد الطقس والتوقعات من أكثر من 4000 مطار (تقارير الطقس للمطار METAR والتنبؤ بالطقس بالمطارTAF).

المحطات المتاحة هي النقط الصفراء والحمراء على الخريطة.

حرك المؤشر فوق النقطة لمعرفة اسم المحطة.

ثم انقر لمعرفة أرصاد وتوقعات الطقس.

لتغيير الخارطة: اضغط على الأزرار الخضراء مع رمز الصليب الأسود للتكبير. على الزر الأخضر مع شرطة للتصغير، أو على الأسهم الخضراء للخرائط المجاورة.


METAR-TAF: